sensor_id;sensor_type;location;lat;lon;timestamp;temperature;humidity
21580;DHT22;10951;59.656;9.666;2023-10-31T00:01:50;-0.70;99.90
21580;DHT22;10951;59.656;9.666;2023-10-31T00:04:17;-0.70;99.90
21580;DHT22;10951;59.656;9.666;2023-10-31T00:06:44;-0.70;99.90
21580;DHT22;10951;59.656;9.666;2023-10-31T00:09:12;-0.70;99.90
21580;DHT22;10951;59.656;9.666;2023-10-31T00:11:41;-0.70;99.90
21580;DHT22;10951;59.656;9.666;2023-10-31T00:14:08;-0.70;99.90
21580;DHT22;10951;59.656;9.666;2023-10-31T00:16:55;-0.70;99.90
21580;DHT22;10951;59.656;9.666;2023-10-31T00:19:23;-0.70;99.90
21580;DHT22;10951;59.656;9.666;2023-10-31T00:21:50;-0.70;99.90
21580;DHT22;10951;59.656;9.666;2023-10-31T00:24:17;-0.70;99.90
21580;DHT22;10951;59.656;9.666;2023-10-31T00:26:44;-0.70;99.90
21580;DHT22;10951;59.656;9.666;2023-10-31T00:29:11;-0.70;99.90
21580;DHT22;10951;59.656;9.666;2023-10-31T00:31:38;-0.70;99.90
21580;DHT22;10951;59.656;9.666;2023-10-31T00:34:08;-0.60;99.90
21580;DHT22;10951;59.656;9.666;2023-10-31T00:36:35;-0.60;99.90
21580;DHT22;10951;59.656;9.666;2023-10-31T00:39:03;-0.70;99.90
21580;DHT22;10951;59.656;9.666;2023-10-31T00:41:30;-0.60;99.90
21580;DHT22;10951;59.656;9.666;2023-10-31T00:43:57;-0.60;99.90
21580;DHT22;10951;59.656;9.666;2023-10-31T00:46:24;-0.60;99.90
21580;DHT22;10951;59.656;9.666;2023-10-31T00:48:52;-0.60;99.90
21580;DHT22;10951;59.656;9.666;2023-10-31T00:51:19;-0.60;99.90
21580;DHT22;10951;59.656;9.666;2023-10-31T00:53:46;-0.60;99.90
21580;DHT22;10951;59.656;9.666;2023-10-31T00:56:13;-0.60;99.90
21580;DHT22;10951;59.656;9.666;2023-10-31T00:58:40;-0.60;99.90
21580;DHT22;10951;59.656;9.666;2023-10-31T01:01:07;-0.50;99.90
21580;DHT22;10951;59.656;9.666;2023-10-31T01:03:34;-0.60;99.90
21580;DHT22;10951;59.656;9.666;2023-10-31T01:06:01;-0.50;99.90
21580;DHT22;10951;59.656;9.666;2023-10-31T01:08:28;-0.50;99.90
21580;DHT22;10951;59.656;9.666;2023-10-31T01:10:56;-0.50;99.90
21580;DHT22;10951;59.656;9.666;2023-10-31T01:13:23;-0.60;99.90
21580;DHT22;10951;59.656;9.666;2023-10-31T01:15:50;-0.50;99.90
21580;DHT22;10951;59.656;9.666;2023-10-31T01:18:17;-0.50;99.90
21580;DHT22;10951;59.656;9.666;2023-10-31T01:20:44;-0.40;99.90
21580;DHT22;10951;59.656;9.666;2023-10-31T01:23:12;-0.40;99.90
21580;DHT22;10951;59.656;9.666;2023-10-31T01:25:39;-0.30;99.90
21580;DHT22;10951;59.656;9.666;2023-10-31T01:28:06;-0.40;99.90
21580;DHT22;10951;59.656;9.666;2023-10-31T01:30:33;-0.40;99.90
21580;DHT22;10951;59.656;9.666;2023-10-31T01:33:00;-0.40;99.90
21580;DHT22;10951;59.656;9.666;2023-10-31T01:35:27;-0.40;99.90
21580;DHT22;10951;59.656;9.666;2023-10-31T01:37:54;-0.40;99.90
21580;DHT22;10951;59.656;9.666;2023-10-31T01:40:21;-0.40;99.90
21580;DHT22;10951;59.656;9.666;2023-10-31T01:42:48;-0.40;99.90
21580;DHT22;10951;59.656;9.666;2023-10-31T01:45:15;-0.40;99.90
21580;DHT22;10951;59.656;9.666;2023-10-31T01:47:43;-0.40;99.90
21580;DHT22;10951;59.656;9.666;2023-10-31T01:50:12;-0.30;99.90
21580;DHT22;10951;59.656;9.666;2023-10-31T01:52:39;-0.30;99.90
21580;DHT22;10951;59.656;9.666;2023-10-31T01:55:06;-0.30;99.90
21580;DHT22;10951;59.656;9.666;2023-10-31T01:57:34;-0.30;99.90
21580;DHT22;10951;59.656;9.666;2023-10-31T02:00:01;-0.30;99.90
21580;DHT22;10951;59.656;9.666;2023-10-31T02:02:38;-0.20;99.90
21580;DHT22;10951;59.656;9.666;2023-10-31T02:05:08;-0.20;99.90
21580;DHT22;10951;59.656;9.666;2023-10-31T02:07:36;-0.20;99.90
21580;DHT22;10951;59.656;9.666;2023-10-31T02:10:03;-0.20;99.90
21580;DHT22;10951;59.656;9.666;2023-10-31T02:12:34;-0.20;99.90
21580;DHT22;10951;59.656;9.666;2023-10-31T02:15:02;-0.20;99.90
21580;DHT22;10951;59.656;9.666;2023-10-31T02:17:30;-0.20;99.90
21580;DHT22;10951;59.656;9.666;2023-10-31T02:19:57;-0.20;99.90
21580;DHT22;10951;59.656;9.666;2023-10-31T02:22:24;-0.20;99.90
21580;DHT22;10951;59.656;9.666;2023-10-31T02:24:51;-0.20;99.90
21580;DHT22;10951;59.656;9.666;2023-10-31T02:27:18;-0.30;99.90
21580;DHT22;10951;59.656;9.666;2023-10-31T02:29:45;-0.20;99.90
21580;DHT22;10951;59.656;9.666;2023-10-31T02:32:12;-0.20;99.90
21580;DHT22;10951;59.656;9.666;2023-10-31T02:34:39;-0.20;99.90
21580;DHT22;10951;59.656;9.666;2023-10-31T02:37:06;-0.20;99.90
21580;DHT22;10951;59.656;9.666;2023-10-31T02:39:33;-0.20;99.90
21580;DHT22;10951;59.656;9.666;2023-10-31T02:42:00;-0.20;99.90
21580;DHT22;10951;59.656;9.666;2023-10-31T02:44:27;-0.10;99.90
21580;DHT22;10951;59.656;9.666;2023-10-31T02:46:55;-0.10;99.90
21580;DHT22;10951;59.656;9.666;2023-10-31T02:49:22;-0.20;99.90
21580;DHT22;10951;59.656;9.666;2023-10-31T02:51:49;-0.20;99.90
21580;DHT22;10951;59.656;9.666;2023-10-31T02:54:16;-0.20;99.90
21580;DHT22;10951;59.656;9.666;2023-10-31T02:56:43;-0.30;99.90
21580;DHT22;10951;59.656;9.666;2023-10-31T02:59:10;-0.20;99.90
21580;DHT22;10951;59.656;9.666;2023-10-31T03:01:37;-0.30;99.90
21580;DHT22;10951;59.656;9.666;2023-10-31T03:04:04;-0.30;99.90
21580;DHT22;10951;59.656;9.666;2023-10-31T03:06:31;-0.30;99.90
21580;DHT22;10951;59.656;9.666;2023-10-31T03:08:58;-0.30;99.90
21580;DHT22;10951;59.656;9.666;2023-10-31T03:11:26;-0.30;99.90
21580;DHT22;10951;59.656;9.666;2023-10-31T03:13:55;-0.30;99.90
21580;DHT22;10951;59.656;9.666;2023-10-31T03:16:23;-0.20;99.90
21580;DHT22;10951;59.656;9.666;2023-10-31T03:18:51;-0.20;99.90
21580;DHT22;10951;59.656;9.666;2023-10-31T03:21:18;-0.20;99.90
21580;DHT22;10951;59.656;9.666;2023-10-31T03:23:49;-0.20;99.90
21580;DHT22;10951;59.656;9.666;2023-10-31T03:26:17;-0.20;99.90
21580;DHT22;10951;59.656;9.666;2023-10-31T03:28:44;-0.20;99.90
21580;DHT22;10951;59.656;9.666;2023-10-31T03:31:12;-0.20;99.90
21580;DHT22;10951;59.656;9.666;2023-10-31T03:33:40;-0.20;99.90
21580;DHT22;10951;59.656;9.666;2023-10-31T03:36:08;-0.10;99.90
21580;DHT22;10951;59.656;9.666;2023-10-31T03:38:35;-0.20;99.90
21580;DHT22;10951;59.656;9.666;2023-10-31T03:41:03;-0.20;99.90
21580;DHT22;10951;59.656;9.666;2023-10-31T03:43:31;-0.20;99.90
21580;DHT22;10951;59.656;9.666;2023-10-31T03:45:58;-0.10;99.90
21580;DHT22;10951;59.656;9.666;2023-10-31T03:48:25;-0.20;99.90
21580;DHT22;10951;59.656;9.666;2023-10-31T03:50:53;-0.20;99.90
21580;DHT22;10951;59.656;9.666;2023-10-31T03:53:20;-0.10;99.90
21580;DHT22;10951;59.656;9.666;2023-10-31T03:55:47;-0.10;99.90
21580;DHT22;10951;59.656;9.666;2023-10-31T03:58:14;-0.10;99.90
21580;DHT22;10951;59.656;9.666;2023-10-31T04:00:41;-0.10;99.90
21580;DHT22;10951;59.656;9.666;2023-10-31T04:03:09;-0.10;99.90
21580;DHT22;10951;59.656;9.666;2023-10-31T04:05:36;-0.10;99.90
21580;DHT22;10951;59.656;9.666;2023-10-31T04:08:04;-0.10;99.90
21580;DHT22;10951;59.656;9.666;2023-10-31T04:10:31;-0.10;99.90
21580;DHT22;10951;59.656;9.666;2023-10-31T04:12:58;-0.10;99.90
21580;DHT22;10951;59.656;9.666;2023-10-31T04:15:25;-0.10;99.90
21580;DHT22;10951;59.656;9.666;2023-10-31T04:17:52;-0.10;99.90
21580;DHT22;10951;59.656;9.666;2023-10-31T04:20:19;-0.10;99.90
21580;DHT22;10951;59.656;9.666;2023-10-31T04:22:46;-0.10;99.90
21580;DHT22;10951;59.656;9.666;2023-10-31T04:25:13;-0.10;99.90
21580;DHT22;10951;59.656;9.666;2023-10-31T04:27:40;-0.10;99.90
21580;DHT22;10951;59.656;9.666;2023-10-31T04:30:07;-0.10;99.90
21580;DHT22;10951;59.656;9.666;2023-10-31T04:32:36;-0.10;99.90
21580;DHT22;10951;59.656;9.666;2023-10-31T04:35:03;-0.10;99.90
21580;DHT22;10951;59.656;9.666;2023-10-31T04:37:30;0.00;99.90
21580;DHT22;10951;59.656;9.666;2023-10-31T04:40:00;-0.10;99.90
21580;DHT22;10951;59.656;9.666;2023-10-31T04:42:27;-0.10;99.90
21580;DHT22;10951;59.656;9.666;2023-10-31T04:44:54;-0.10;99.90
21580;DHT22;10951;59.656;9.666;2023-10-31T04:47:21;-0.10;99.90
21580;DHT22;10951;59.656;9.666;2023-10-31T04:49:48;-0.10;99.90
21580;DHT22;10951;59.656;9.666;2023-10-31T04:52:17;-0.10;99.90
21580;DHT22;10951;59.656;9.666;2023-10-31T04:54:44;-0.10;99.90
21580;DHT22;10951;59.656;9.666;2023-10-31T04:57:11;-0.10;99.90
21580;DHT22;10951;59.656;9.666;2023-10-31T04:59:38;-0.10;99.90
21580;DHT22;10951;59.656;9.666;2023-10-31T05:02:04;-0.10;99.90
21580;DHT22;10951;59.656;9.666;2023-10-31T05:04:32;0.00;99.90
21580;DHT22;10951;59.656;9.666;2023-10-31T05:06:59;0.00;99.90
21580;DHT22;10951;59.656;9.666;2023-10-31T05:09:26;0.00;99.90
21580;DHT22;10951;59.656;9.666;2023-10-31T05:11:53;0.00;99.90
21580;DHT22;10951;59.656;9.666;2023-10-31T05:14:20;0.00;99.90
21580;DHT22;10951;59.656;9.666;2023-10-31T05:16:48;0.00;99.90
21580;DHT22;10951;59.656;9.666;2023-10-31T05:19:15;0.00;99.90
21580;DHT22;10951;59.656;9.666;2023-10-31T05:21:42;0.00;99.90
21580;DHT22;10951;59.656;9.666;2023-10-31T05:24:09;0.00;99.90
21580;DHT22;10951;59.656;9.666;2023-10-31T05:26:36;0.00;99.50
21580;DHT22;10951;59.656;9.666;2023-10-31T05:29:04;0.00;99.80
21580;DHT22;10951;59.656;9.666;2023-10-31T05:31:31;0.00;99.80
21580;DHT22;10951;59.656;9.666;2023-10-31T05:33:58;0.00;99.80
21580;DHT22;10951;59.656;9.666;2023-10-31T05:36:25;0.00;99.90
21580;DHT22;10951;59.656;9.666;2023-10-31T05:38:52;0.00;99.90
21580;DHT22;10951;59.656;9.666;2023-10-31T05:41:19;0.00;99.80
21580;DHT22;10951;59.656;9.666;2023-10-31T05:43:46;0.00;99.90
21580;DHT22;10951;59.656;9.666;2023-10-31T05:46:14;0.10;99.90
21580;DHT22;10951;59.656;9.666;2023-10-31T05:48:43;0.10;99.90
21580;DHT22;10951;59.656;9.666;2023-10-31T05:51:18;0.00;99.90
21580;DHT22;10951;59.656;9.666;2023-10-31T05:53:46;0.00;99.90
21580;DHT22;10951;59.656;9.666;2023-10-31T05:56:15;0.00;99.90
21580;DHT22;10951;59.656;9.666;2023-10-31T05:58:42;0.00;99.90
21580;DHT22;10951;59.656;9.666;2023-10-31T06:01:10;0.00;99.90
21580;DHT22;10951;59.656;9.666;2023-10-31T06:03:37;0.00;99.90
21580;DHT22;10951;59.656;9.666;2023-10-31T06:06:05;0.00;99.90
21580;DHT22;10951;59.656;9.666;2023-10-31T06:08:32;0.00;99.90
21580;DHT22;10951;59.656;9.666;2023-10-31T06:11:00;0.00;99.90
21580;DHT22;10951;59.656;9.666;2023-10-31T06:13:27;0.00;99.90
21580;DHT22;10951;59.656;9.666;2023-10-31T06:15:56;0.00;99.90
21580;DHT22;10951;59.656;9.666;2023-10-31T06:18:28;0.00;99.90
21580;DHT22;10951;59.656;9.666;2023-10-31T06:20:55;0.00;99.90
21580;DHT22;10951;59.656;9.666;2023-10-31T06:23:23;0.00;99.90
21580;DHT22;10951;59.656;9.666;2023-10-31T06:25:50;0.00;99.90
21580;DHT22;10951;59.656;9.666;2023-10-31T06:28:18;0.00;99.90
21580;DHT22;10951;59.656;9.666;2023-10-31T06:30:45;0.10;99.90
21580;DHT22;10951;59.656;9.666;2023-10-31T06:33:12;0.10;99.90
21580;DHT22;10951;59.656;9.666;2023-10-31T06:35:39;0.00;99.90
21580;DHT22;10951;59.656;9.666;2023-10-31T06:38:06;0.00;99.90
21580;DHT22;10951;59.656;9.666;2023-10-31T06:40:33;0.00;99.90
21580;DHT22;10951;59.656;9.666;2023-10-31T06:43:01;0.00;99.90
21580;DHT22;10951;59.656;9.666;2023-10-31T06:45:28;0.00;99.90
21580;DHT22;10951;59.656;9.666;2023-10-31T06:47:55;0.00;99.90
21580;DHT22;10951;59.656;9.666;2023-10-31T06:50:22;-0.10;99.90
21580;DHT22;10951;59.656;9.666;2023-10-31T06:52:49;-0.20;99.90
21580;DHT22;10951;59.656;9.666;2023-10-31T06:55:17;-0.20;99.90
21580;DHT22;10951;59.656;9.666;2023-10-31T06:57:43;-0.10;99.90
21580;DHT22;10951;59.656;9.666;2023-10-31T07:00:11;-0.20;99.90
21580;DHT22;10951;59.656;9.666;2023-10-31T07:02:39;-0.20;99.90
21580;DHT22;10951;59.656;9.666;2023-10-31T07:05:09;-0.20;99.90
21580;DHT22;10951;59.656;9.666;2023-10-31T07:07:37;-0.10;99.90
21580;DHT22;10951;59.656;9.666;2023-10-31T07:10:04;-0.20;99.90
21580;DHT22;10951;59.656;9.666;2023-10-31T07:12:31;-0.20;99.90
21580;DHT22;10951;59.656;9.666;2023-10-31T07:14:58;-0.20;99.90
21580;DHT22;10951;59.656;9.666;2023-10-31T07:17:25;-0.20;99.90
21580;DHT22;10951;59.656;9.666;2023-10-31T07:19:53;-0.20;99.90
21580;DHT22;10951;59.656;9.666;2023-10-31T07:22:20;-0.20;99.90
21580;DHT22;10951;59.656;9.666;2023-10-31T07:24:47;-0.20;99.90
21580;DHT22;10951;59.656;9.666;2023-10-31T07:27:13;-0.20;99.90
21580;DHT22;10951;59.656;9.666;2023-10-31T07:29:41;-0.20;99.90
21580;DHT22;10951;59.656;9.666;2023-10-31T07:32:08;-0.20;99.90
21580;DHT22;10951;59.656;9.666;2023-10-31T07:34:40;-0.20;99.90
21580;DHT22;10951;59.656;9.666;2023-10-31T07:37:07;-0.20;99.90
21580;DHT22;10951;59.656;9.666;2023-10-31T07:39:34;-0.20;99.90
21580;DHT22;10951;59.656;9.666;2023-10-31T07:42:01;-0.20;99.90
21580;DHT22;10951;59.656;9.666;2023-10-31T07:44:28;-0.20;99.90
21580;DHT22;10951;59.656;9.666;2023-10-31T07:46:55;-0.20;99.90
21580;DHT22;10951;59.656;9.666;2023-10-31T07:49:22;-0.20;99.90
21580;DHT22;10951;59.656;9.666;2023-10-31T07:51:49;-0.20;99.90
21580;DHT22;10951;59.656;9.666;2023-10-31T07:54:16;-0.20;99.90
21580;DHT22;10951;59.656;9.666;2023-10-31T07:56:43;-0.20;99.90
21580;DHT22;10951;59.656;9.666;2023-10-31T07:59:10;-0.20;99.90
21580;DHT22;10951;59.656;9.666;2023-10-31T08:01:38;-0.20;99.90
21580;DHT22;10951;59.656;9.666;2023-10-31T08:04:05;-0.20;99.90
21580;DHT22;10951;59.656;9.666;2023-10-31T08:06:32;-0.20;99.90
21580;DHT22;10951;59.656;9.666;2023-10-31T08:08:59;-0.10;99.90
21580;DHT22;10951;59.656;9.666;2023-10-31T08:11:26;-0.10;99.90
21580;DHT22;10951;59.656;9.666;2023-10-31T08:13:54;-0.10;99.90
21580;DHT22;10951;59.656;9.666;2023-10-31T08:16:20;-0.10;99.90
21580;DHT22;10951;59.656;9.666;2023-10-31T08:18:48;-0.10;99.90
21580;DHT22;10951;59.656;9.666;2023-10-31T08:21:15;-0.10;99.90
21580;DHT22;10951;59.656;9.666;2023-10-31T08:23:42;-0.20;99.90
21580;DHT22;10951;59.656;9.666;2023-10-31T08:26:11;-0.10;99.90
21580;DHT22;10951;59.656;9.666;2023-10-31T08:28:39;-0.10;99.90
21580;DHT22;10951;59.656;9.666;2023-10-31T08:31:06;-0.10;99.90
21580;DHT22;10951;59.656;9.666;2023-10-31T08:33:34;-0.10;99.90
21580;DHT22;10951;59.656;9.666;2023-10-31T08:36:01;-0.10;99.90
21580;DHT22;10951;59.656;9.666;2023-10-31T08:38:28;0.00;99.90
21580;DHT22;10951;59.656;9.666;2023-10-31T08:40:58;-0.10;99.90
21580;DHT22;10951;59.656;9.666;2023-10-31T08:43:26;0.00;99.90
21580;DHT22;10951;59.656;9.666;2023-10-31T08:45:53;0.00;99.90
21580;DHT22;10951;59.656;9.666;2023-10-31T08:48:20;0.00;99.90
21580;DHT22;10951;59.656;9.666;2023-10-31T08:50:47;0.00;99.90
21580;DHT22;10951;59.656;9.666;2023-10-31T08:53:15;0.10;99.90
21580;DHT22;10951;59.656;9.666;2023-10-31T08:55:42;0.10;99.90
21580;DHT22;10951;59.656;9.666;2023-10-31T08:58:11;0.10;99.90
21580;DHT22;10951;59.656;9.666;2023-10-31T09:00:39;0.20;99.90
21580;DHT22;10951;59.656;9.666;2023-10-31T09:03:09;0.20;99.90
21580;DHT22;10951;59.656;9.666;2023-10-31T09:05:37;0.20;99.90
21580;DHT22;10951;59.656;9.666;2023-10-31T09:08:04;0.30;99.90
21580;DHT22;10951;59.656;9.666;2023-10-31T09:10:32;0.30;99.90
21580;DHT22;10951;59.656;9.666;2023-10-31T09:12:59;0.30;99.90
21580;DHT22;10951;59.656;9.666;2023-10-31T09:15:26;0.30;99.90
21580;DHT22;10951;59.656;9.666;2023-10-31T09:17:53;0.30;99.90
21580;DHT22;10951;59.656;9.666;2023-10-31T09:20:20;0.30;99.90
21580;DHT22;10951;59.656;9.666;2023-10-31T09:22:48;0.30;99.90
21580;DHT22;10951;59.656;9.666;2023-10-31T09:25:15;0.30;99.90
21580;DHT22;10951;59.656;9.666;2023-10-31T09:27:42;0.30;99.90
21580;DHT22;10951;59.656;9.666;2023-10-31T09:30:09;0.40;99.90
21580;DHT22;10951;59.656;9.666;2023-10-31T09:32:36;0.40;99.90
21580;DHT22;10951;59.656;9.666;2023-10-31T09:35:04;0.40;99.90
21580;DHT22;10951;59.656;9.666;2023-10-31T09:37:31;0.40;99.90
21580;DHT22;10951;59.656;9.666;2023-10-31T09:39:58;0.40;99.90
21580;DHT22;10951;59.656;9.666;2023-10-31T09:42:25;0.30;99.90
21580;DHT22;10951;59.656;9.666;2023-10-31T09:44:52;0.30;99.90
21580;DHT22;10951;59.656;9.666;2023-10-31T09:47:20;0.30;99.90
21580;DHT22;10951;59.656;9.666;2023-10-31T09:49:47;0.30;99.90
21580;DHT22;10951;59.656;9.666;2023-10-31T09:52:14;0.30;99.90
21580;DHT22;10951;59.656;9.666;2023-10-31T09:54:42;0.30;99.90
21580;DHT22;10951;59.656;9.666;2023-10-31T09:57:13;0.20;99.90
21580;DHT22;10951;59.656;9.666;2023-10-31T09:59:41;0.20;99.90
21580;DHT22;10951;59.656;9.666;2023-10-31T10:02:08;0.20;99.90
21580;DHT22;10951;59.656;9.666;2023-10-31T10:04:37;0.20;99.90
21580;DHT22;10951;59.656;9.666;2023-10-31T10:07:04;0.20;99.90
21580;DHT22;10951;59.656;9.666;2023-10-31T10:09:31;0.20;99.90
21580;DHT22;10951;59.656;9.666;2023-10-31T10:12:00;0.30;99.90
21580;DHT22;10951;59.656;9.666;2023-10-31T10:14:27;0.30;99.90
21580;DHT22;10951;59.656;9.666;2023-10-31T10:17:00;0.30;99.90
21580;DHT22;10951;59.656;9.666;2023-10-31T10:19:27;0.40;99.90
21580;DHT22;10951;59.656;9.666;2023-10-31T10:21:57;0.30;99.90
21580;DHT22;10951;59.656;9.666;2023-10-31T10:24:25;0.30;99.90
21580;DHT22;10951;59.656;9.666;2023-10-31T10:26:52;0.30;99.90
21580;DHT22;10951;59.656;9.666;2023-10-31T10:29:20;0.30;99.90
21580;DHT22;10951;59.656;9.666;2023-10-31T10:31:47;0.30;99.90
21580;DHT22;10951;59.656;9.666;2023-10-31T10:34:15;0.40;99.90
21580;DHT22;10951;59.656;9.666;2023-10-31T10:36:48;0.30;99.90
21580;DHT22;10951;59.656;9.666;2023-10-31T10:39:21;0.40;99.90
21580;DHT22;10951;59.656;9.666;2023-10-31T10:41:53;0.40;99.90
21580;DHT22;10951;59.656;9.666;2023-10-31T10:44:34;0.50;99.90
21580;DHT22;10951;59.656;9.666;2023-10-31T10:47:04;0.50;99.90
21580;DHT22;10951;59.656;9.666;2023-10-31T10:49:36;0.50;99.90
21580;DHT22;10951;59.656;9.666;2023-10-31T10:54:44;0.50;99.90
21580;DHT22;10951;59.656;9.666;2023-10-31T11:00:03;0.60;99.90
21580;DHT22;10951;59.656;9.666;2023-10-31T11:02:32;0.50;99.90
21580;DHT22;10951;59.656;9.666;2023-10-31T11:05:00;0.50;99.90
21580;DHT22;10951;59.656;9.666;2023-10-31T11:07:29;0.50;99.90
21580;DHT22;10951;59.656;9.666;2023-10-31T11:09:57;0.60;99.90
21580;DHT22;10951;59.656;9.666;2023-10-31T11:12:25;0.60;99.90
21580;DHT22;10951;59.656;9.666;2023-10-31T11:14:53;0.70;99.90
21580;DHT22;10951;59.656;9.666;2023-10-31T11:17:31;0.70;99.90
21580;DHT22;10951;59.656;9.666;2023-10-31T11:20:02;0.70;99.90
21580;DHT22;10951;59.656;9.666;2023-10-31T11:25:14;0.70;99.90
21580;DHT22;10951;59.656;9.666;2023-10-31T11:27:57;0.70;99.90
21580;DHT22;10951;59.656;9.666;2023-10-31T11:30:37;0.70;99.90
21580;DHT22;10951;59.656;9.666;2023-10-31T11:33:04;0.60;99.90
21580;DHT22;10951;59.656;9.666;2023-10-31T11:35:36;0.60;99.90
21580;DHT22;10951;59.656;9.666;2023-10-31T11:38:07;0.60;99.90
21580;DHT22;10951;59.656;9.666;2023-10-31T11:40:36;0.60;99.90
21580;DHT22;10951;59.656;9.666;2023-10-31T11:43:05;0.70;99.90
21580;DHT22;10951;59.656;9.666;2023-10-31T11:45:35;0.60;99.90
21580;DHT22;10951;59.656;9.666;2023-10-31T11:48:04;0.70;99.90
21580;DHT22;10951;59.656;9.666;2023-10-31T11:50:32;0.60;99.90
21580;DHT22;10951;59.656;9.666;2023-10-31T11:53:12;0.60;99.90
21580;DHT22;10951;59.656;9.666;2023-10-31T11:55:45;0.60;99.90
21580;DHT22;10951;59.656;9.666;2023-10-31T11:58:23;0.60;99.90
21580;DHT22;10951;59.656;9.666;2023-10-31T12:01:04;0.70;99.90
21580;DHT22;10951;59.656;9.666;2023-10-31T12:03:43;0.70;99.90
21580;DHT22;10951;59.656;9.666;2023-10-31T12:06:15;0.70;99.90
21580;DHT22;10951;59.656;9.666;2023-10-31T12:08:43;0.70;99.90
21580;DHT22;10951;59.656;9.666;2023-10-31T12:11:11;0.70;99.90
21580;DHT22;10951;59.656;9.666;2023-10-31T12:13:40;0.70;99.90
21580;DHT22;10951;59.656;9.666;2023-10-31T12:16:11;0.70;99.90
21580;DHT22;10951;59.656;9.666;2023-10-31T12:18:39;0.70;99.90
21580;DHT22;10951;59.656;9.666;2023-10-31T12:21:06;0.80;99.90
21580;DHT22;10951;59.656;9.666;2023-10-31T12:23:35;0.80;99.90
21580;DHT22;10951;59.656;9.666;2023-10-31T12:26:02;0.80;99.90
21580;DHT22;10951;59.656;9.666;2023-10-31T12:28:29;0.80;99.90
21580;DHT22;10951;59.656;9.666;2023-10-31T12:30:56;0.80;99.90
21580;DHT22;10951;59.656;9.666;2023-10-31T12:33:28;0.80;99.90
21580;DHT22;10951;59.656;9.666;2023-10-31T12:35:59;0.70;99.90
21580;DHT22;10951;59.656;9.666;2023-10-31T12:38:28;0.70;99.90
21580;DHT22;10951;59.656;9.666;2023-10-31T12:40:56;0.80;99.90
21580;DHT22;10951;59.656;9.666;2023-10-31T12:43:24;0.80;99.90
21580;DHT22;10951;59.656;9.666;2023-10-31T12:45:52;0.80;99.90
21580;DHT22;10951;59.656;9.666;2023-10-31T12:48:24;0.80;99.90
21580;DHT22;10951;59.656;9.666;2023-10-31T12:51:06;0.80;99.90
21580;DHT22;10951;59.656;9.666;2023-10-31T12:53:34;0.80;99.90
21580;DHT22;10951;59.656;9.666;2023-10-31T12:56:01;0.80;99.90
21580;DHT22;10951;59.656;9.666;2023-10-31T12:58:29;0.80;99.90
21580;DHT22;10951;59.656;9.666;2023-10-31T13:00:56;0.70;99.90
21580;DHT22;10951;59.656;9.666;2023-10-31T13:03:23;0.70;99.90
21580;DHT22;10951;59.656;9.666;2023-10-31T13:05:50;0.70;99.90
21580;DHT22;10951;59.656;9.666;2023-10-31T13:08:17;0.80;99.90
21580;DHT22;10951;59.656;9.666;2023-10-31T13:10:45;0.70;99.90
21580;DHT22;10951;59.656;9.666;2023-10-31T13:13:12;0.70;99.90
21580;DHT22;10951;59.656;9.666;2023-10-31T13:15:39;0.70;99.90
21580;DHT22;10951;59.656;9.666;2023-10-31T13:18:06;0.80;99.90
21580;DHT22;10951;59.656;9.666;2023-10-31T13:20:34;0.80;99.90
21580;DHT22;10951;59.656;9.666;2023-10-31T13:23:01;0.70;99.90
21580;DHT22;10951;59.656;9.666;2023-10-31T13:25:30;0.70;99.90
21580;DHT22;10951;59.656;9.666;2023-10-31T13:27:58;0.80;99.90
21580;DHT22;10951;59.656;9.666;2023-10-31T13:30:25;0.80;99.90
21580;DHT22;10951;59.656;9.666;2023-10-31T13:32:52;0.80;99.90
21580;DHT22;10951;59.656;9.666;2023-10-31T13:35:20;0.80;99.90
21580;DHT22;10951;59.656;9.666;2023-10-31T13:37:47;0.80;99.90
21580;DHT22;10951;59.656;9.666;2023-10-31T13:40:14;0.70;99.90
21580;DHT22;10951;59.656;9.666;2023-10-31T13:42:41;0.70;99.90
21580;DHT22;10951;59.656;9.666;2023-10-31T13:45:09;0.80;99.90
21580;DHT22;10951;59.656;9.666;2023-10-31T13:47:36;0.80;99.90
21580;DHT22;10951;59.656;9.666;2023-10-31T13:50:05;0.70;99.90
21580;DHT22;10951;59.656;9.666;2023-10-31T13:52:33;0.80;99.90
21580;DHT22;10951;59.656;9.666;2023-10-31T13:55:00;0.70;99.90
21580;DHT22;10951;59.656;9.666;2023-10-31T13:57:28;0.70;99.90
21580;DHT22;10951;59.656;9.666;2023-10-31T13:59:55;0.70;99.90
21580;DHT22;10951;59.656;9.666;2023-10-31T14:02:22;0.70;99.90
21580;DHT22;10951;59.656;9.666;2023-10-31T14:04:49;0.70;99.90
21580;DHT22;10951;59.656;9.666;2023-10-31T14:07:21;0.70;99.90
21580;DHT22;10951;59.656;9.666;2023-10-31T14:09:52;0.60;99.90
21580;DHT22;10951;59.656;9.666;2023-10-31T14:12:19;0.60;99.90
21580;DHT22;10951;59.656;9.666;2023-10-31T14:14:46;0.60;99.90
21580;DHT22;10951;59.656;9.666;2023-10-31T14:17:16;0.60;99.90
21580;DHT22;10951;59.656;9.666;2023-10-31T14:19:43;0.60;99.90
21580;DHT22;10951;59.656;9.666;2023-10-31T14:22:12;0.50;99.90
21580;DHT22;10951;59.656;9.666;2023-10-31T14:24:40;0.50;99.90
21580;DHT22;10951;59.656;9.666;2023-10-31T14:27:07;0.50;99.90
21580;DHT22;10951;59.656;9.666;2023-10-31T14:29:35;0.50;99.90
21580;DHT22;10951;59.656;9.666;2023-10-31T14:32:09;0.50;99.90
21580;DHT22;10951;59.656;9.666;2023-10-31T14:34:38;0.50;99.90
21580;DHT22;10951;59.656;9.666;2023-10-31T14:37:05;0.50;99.90
21580;DHT22;10951;59.656;9.666;2023-10-31T14:39:32;0.50;99.90
21580;DHT22;10951;59.656;9.666;2023-10-31T14:42:00;0.50;99.90
21580;DHT22;10951;59.656;9.666;2023-10-31T14:44:27;0.50;99.90
21580;DHT22;10951;59.656;9.666;2023-10-31T14:46:55;0.40;99.90
21580;DHT22;10951;59.656;9.666;2023-10-31T14:49:22;0.40;99.90
21580;DHT22;10951;59.656;9.666;2023-10-31T14:51:49;0.40;99.90
21580;DHT22;10951;59.656;9.666;2023-10-31T14:54:16;0.40;99.90
21580;DHT22;10951;59.656;9.666;2023-10-31T14:56:43;0.40;99.90
21580;DHT22;10951;59.656;9.666;2023-10-31T14:59:10;0.40;99.90
21580;DHT22;10951;59.656;9.666;2023-10-31T15:01:37;0.40;99.90
21580;DHT22;10951;59.656;9.666;2023-10-31T15:04:04;0.30;99.90
21580;DHT22;10951;59.656;9.666;2023-10-31T15:06:31;0.30;99.90
21580;DHT22;10951;59.656;9.666;2023-10-31T15:08:58;0.30;99.90
21580;DHT22;10951;59.656;9.666;2023-10-31T15:11:25;0.30;99.90
21580;DHT22;10951;59.656;9.666;2023-10-31T15:13:53;0.30;99.90
21580;DHT22;10951;59.656;9.666;2023-10-31T15:16:20;0.30;99.90
21580;DHT22;10951;59.656;9.666;2023-10-31T15:18:47;0.20;99.90
21580;DHT22;10951;59.656;9.666;2023-10-31T15:21:14;0.20;99.90
21580;DHT22;10951;59.656;9.666;2023-10-31T15:23:41;0.20;99.90
21580;DHT22;10951;59.656;9.666;2023-10-31T15:26:08;0.20;99.90
21580;DHT22;10951;59.656;9.666;2023-10-31T15:28:40;0.20;99.90
21580;DHT22;10951;59.656;9.666;2023-10-31T15:31:10;0.20;99.90
21580;DHT22;10951;59.656;9.666;2023-10-31T15:33:37;0.20;99.90
21580;DHT22;10951;59.656;9.666;2023-10-31T15:36:10;0.20;99.90
21580;DHT22;10951;59.656;9.666;2023-10-31T15:38:41;0.20;99.90
21580;DHT22;10951;59.656;9.666;2023-10-31T15:41:09;0.20;99.90
21580;DHT22;10951;59.656;9.666;2023-10-31T15:43:44;0.20;99.90
21580;DHT22;10951;59.656;9.666;2023-10-31T15:46:11;0.20;99.90
21580;DHT22;10951;59.656;9.666;2023-10-31T15:48:38;0.20;99.90
21580;DHT22;10951;59.656;9.666;2023-10-31T15:51:05;0.20;99.90
21580;DHT22;10951;59.656;9.666;2023-10-31T15:53:32;0.20;99.90